sensor_id;sensor_type;location;lat;lon;timestamp;pressure;altitude;pressure_sealevel;temperature;humidity
77205;BME280;67992;46.618;18.850;2023-04-01T00:01:40;98940.38;;;16.87;46.33
77205;BME280;67992;46.618;18.850;2023-04-01T00:04:05;98941.81;;;16.83;46.46
77205;BME280;67992;46.618;18.850;2023-04-01T00:06:31;98942.66;;;16.84;46.48
77205;BME280;67992;46.618;18.850;2023-04-01T00:08:57;98947.66;;;16.80;46.69
77205;BME280;67992;46.618;18.850;2023-04-01T00:11:22;98948.69;;;16.79;46.56
77205;BME280;67992;46.618;18.850;2023-04-01T00:13:48;98959.84;;;16.83;46.67
77205;BME280;67992;46.618;18.850;2023-04-01T00:16:15;98964.16;;;16.84;46.50
77205;BME280;67992;46.618;18.850;2023-04-01T00:18:40;98949.97;;;16.70;46.60
77205;BME280;67992;46.618;18.850;2023-04-01T00:21:07;98951.59;;;16.71;46.58
77205;BME280;67992;46.618;18.850;2023-04-01T00:23:33;98964.38;;;16.82;46.75
77205;BME280;67992;46.618;18.850;2023-04-01T00:26:00;98963.53;;;16.82;46.67
77205;BME280;67992;46.618;18.850;2023-04-01T00:28:26;98948.69;;;16.79;46.64
77205;BME280;67992;46.618;18.850;2023-04-01T00:30:52;98960.25;;;16.73;46.58
77205;BME280;67992;46.618;18.850;2023-04-01T00:33:17;98966.47;;;16.80;46.44
77205;BME280;67992;46.618;18.850;2023-04-01T00:35:43;98966.22;;;16.82;46.49
77205;BME280;67992;46.618;18.850;2023-04-01T00:38:10;98957.34;;;16.81;46.37
77205;BME280;67992;46.618;18.850;2023-04-01T00:40:46;98951.13;;;16.81;46.51
77205;BME280;67992;46.618;18.850;2023-04-01T00:43:13;98943.06;;;16.81;46.64
77205;BME280;67992;46.618;18.850;2023-04-01T00:45:41;98948.44;;;16.81;46.61
77205;BME280;67992;46.618;18.850;2023-04-01T00:48:11;98948.69;;;16.79;46.38
77205;BME280;67992;46.618;18.850;2023-04-01T00:50:41;98934.41;;;16.79;46.61
77205;BME280;67992;46.618;18.850;2023-04-01T00:53:08;98943.31;;;16.79;46.61
77205;BME280;67992;46.618;18.850;2023-04-01T00:55:38;98947.66;;;16.80;46.59
77205;BME280;67992;46.618;18.850;2023-04-01T00:58:07;98934.22;;;16.80;46.46
77205;BME280;67992;46.618;18.850;2023-04-01T01:00:35;98940.38;;;16.81;46.98
77205;BME280;67992;46.618;18.850;2023-04-01T01:03:04;98935.25;;;16.79;46.83
77205;BME280;67992;46.618;18.850;2023-04-01T01:05:44;98934.44;;;16.72;46.59
77205;BME280;67992;46.618;18.850;2023-04-01T01:10:42;98931.94;;;16.77;46.46
77205;BME280;67992;46.618;18.850;2023-04-01T01:13:36;98935.25;;;16.79;46.50
77205;BME280;67992;46.618;18.850;2023-04-01T01:16:08;98936.25;;;16.78;46.40
77205;BME280;67992;46.618;18.850;2023-04-01T01:18:40;98937.94;;;16.79;46.59
77205;BME280;67992;46.618;18.850;2023-04-01T01:27:04;98930.88;;;16.78;46.91
77205;BME280;67992;46.618;18.850;2023-04-01T01:35:16;98916.84;;;16.76;46.69
77205;BME280;67992;46.618;18.850;2023-04-01T01:37:46;98910.66;;;16.76;46.64
77205;BME280;67992;46.618;18.850;2023-04-01T01:40:13;98916.03;;;16.76;46.48
77205;BME280;67992;46.618;18.850;2023-04-01T01:42:44;98921.41;;;16.76;46.58
77205;BME280;67992;46.618;18.850;2023-04-01T01:45:13;98925.97;;;16.75;46.36
77205;BME280;67992;46.618;18.850;2023-04-01T01:47:42;98929.69;;;16.74;46.63
77205;BME280;67992;46.618;18.850;2023-04-01T01:50:09;98927.59;;;16.76;46.52
77205;BME280;67992;46.618;18.850;2023-04-01T01:52:35;98939.41;;;16.75;46.52
77205;BME280;67992;46.618;18.850;2023-04-01T01:55:01;98935.06;;;16.74;46.68
77205;BME280;67992;46.618;18.850;2023-04-01T01:57:30;98932.38;;;16.74;46.58
77205;BME280;67992;46.618;18.850;2023-04-01T02:00:02;98928.47;;;16.70;46.55
77205;BME280;67992;46.618;18.850;2023-04-01T02:02:28;98934.44;;;16.72;46.62
77205;BME280;67992;46.618;18.850;2023-04-01T02:04:57;98935.06;;;16.74;46.48
77205;BME280;67992;46.618;18.850;2023-04-01T02:07:31;98929.06;;;16.72;46.60
77205;BME280;67992;46.618;18.850;2023-04-01T02:09:57;98932.38;;;16.74;46.50
77205;BME280;67992;46.618;18.850;2023-04-01T02:12:23;98927.22;;;16.73;46.66
77205;BME280;67992;46.618;18.850;2023-04-01T02:15:00;98921.84;;;16.73;46.46
77205;BME280;67992;46.618;18.850;2023-04-01T02:17:31;98926.38;;;16.72;46.59
77205;BME280;67992;46.618;18.850;2023-04-01T02:20:01;98919.97;;;16.73;46.62
77205;BME280;67992;46.618;18.850;2023-04-01T02:22:34;98892.94;;;16.62;46.47
77205;BME280;67992;46.618;18.850;2023-04-01T02:25:13;98915.03;;;16.70;46.46
77205;BME280;67992;46.618;18.850;2023-04-01T02:27:40;98901.22;;;16.60;46.18
77205;BME280;67992;46.618;18.850;2023-04-01T02:30:07;98909.47;;;16.65;46.64
77205;BME280;67992;46.618;18.850;2023-04-01T02:32:34;98903.28;;;16.65;46.68
77205;BME280;67992;46.618;18.850;2023-04-01T02:35:01;98914.81;;;16.72;46.39
77205;BME280;67992;46.618;18.850;2023-04-01T02:37:31;98904.91;;;16.66;46.15
77205;BME280;67992;46.618;18.850;2023-04-01T02:40:04;98909.66;;;16.70;46.51
77205;BME280;67992;46.618;18.850;2023-04-01T02:42:31;98914.22;;;16.70;46.50
77205;BME280;67992;46.618;18.850;2023-04-01T02:44:57;98924.72;;;16.71;46.41
77205;BME280;67992;46.618;18.850;2023-04-01T02:47:22;98906.81;;;16.59;46.37
77205;BME280;67992;46.618;18.850;2023-04-01T02:49:48;98930.09;;;16.71;46.60
77205;BME280;67992;46.618;18.850;2023-04-01T02:52:14;98906.38;;;16.55;46.64
77205;BME280;67992;46.618;18.850;2023-04-01T02:54:39;98926.81;;;16.69;46.60
77205;BME280;67992;46.618;18.850;2023-04-01T02:57:07;98928.47;;;16.70;46.50
77205;BME280;67992;46.618;18.850;2023-04-01T02:59:32;98925.56;;;16.72;46.57
77205;BME280;67992;46.618;18.850;2023-04-01T03:01:58;98920.59;;;16.69;46.47
77205;BME280;67992;46.618;18.850;2023-04-01T03:04:23;98925.78;;;16.70;46.62
77205;BME280;67992;46.618;18.850;2023-04-01T03:06:49;98936.53;;;16.70;46.50
77205;BME280;67992;46.618;18.850;2023-04-01T03:09:15;98925.97;;;16.69;46.17
77205;BME280;67992;46.618;18.850;2023-04-01T03:11:41;98934.88;;;16.69;46.61
77205;BME280;67992;46.618;18.850;2023-04-01T03:14:06;98931.16;;;16.70;46.26
77205;BME280;67992;46.618;18.850;2023-04-01T03:16:32;98928.66;;;16.69;46.43
77205;BME280;67992;46.618;18.850;2023-04-01T03:18:58;98930.31;;;16.70;46.42
77205;BME280;67992;46.618;18.850;2023-04-01T03:21:25;98927.03;;;16.68;46.24
77205;BME280;67992;46.618;18.850;2023-04-01T03:23:51;98930.53;;;16.68;46.62
77205;BME280;67992;46.618;18.850;2023-04-01T03:26:17;98914.63;;;16.67;46.42
77205;BME280;67992;46.618;18.850;2023-04-01T03:28:43;98915.47;;;16.67;46.26
77205;BME280;67992;46.618;18.850;2023-04-01T03:31:09;98908.44;;;16.66;46.43
77205;BME280;67992;46.618;18.850;2023-04-01T03:33:35;98919.16;;;16.66;46.56
77205;BME280;67992;46.618;18.850;2023-04-01T03:36:01;98914.03;;;16.65;46.71
77205;BME280;67992;46.618;18.850;2023-04-01T03:38:26;98911.13;;;16.66;46.61
77205;BME280;67992;46.618;18.850;2023-04-01T03:40:52;98916.47;;;16.66;46.42
77205;BME280;67992;46.618;18.850;2023-04-01T03:43:17;98903.09;;;16.60;46.62
77205;BME280;67992;46.618;18.850;2023-04-01T03:45:48;98912.38;;;16.64;46.45
77205;BME280;67992;46.618;18.850;2023-04-01T03:48:14;98911.34;;;16.65;46.50
77205;BME280;67992;46.618;18.850;2023-04-01T03:50:40;98904.09;;;16.65;46.64
77205;BME280;67992;46.618;18.850;2023-04-01T03:53:06;98897.06;;;16.64;46.53
77205;BME280;67992;46.618;18.850;2023-04-01T03:55:31;98905.97;;;16.65;46.51
77205;BME280;67992;46.618;18.850;2023-04-01T03:57:57;98896.84;;;16.66;46.05
77205;BME280;67992;46.618;18.850;2023-04-01T04:00:22;98895.22;;;16.65;46.52
77205;BME280;67992;46.618;18.850;2023-04-01T04:02:48;98896.84;;;16.66;46.46
77205;BME280;67992;46.618;18.850;2023-04-01T04:05:14;98897.06;;;16.64;46.74
77205;BME280;67992;46.618;18.850;2023-04-01T04:07:39;98901.44;;;16.65;46.40
77205;BME280;67992;46.618;18.850;2023-04-01T04:10:05;98905.13;;;16.64;46.64
77205;BME280;67992;46.618;18.850;2023-04-01T04:12:31;98900.78;;;16.63;46.54
77205;BME280;67992;46.618;18.850;2023-04-01T04:14:57;98899.97;;;16.63;46.44
77205;BME280;67992;46.618;18.850;2023-04-01T04:17:22;98902.63;;;16.63;46.76
77205;BME280;67992;46.618;18.850;2023-04-01T04:19:48;98901.63;;;16.64;46.46
77205;BME280;67992;46.618;18.850;2023-04-01T04:22:14;98892.13;;;16.61;46.57
77205;BME280;67992;46.618;18.850;2023-04-01T04:24:40;98891.91;;;16.63;46.53
77205;BME280;67992;46.618;18.850;2023-04-01T04:27:05;98893.56;;;16.64;46.42
77205;BME280;67992;46.618;18.850;2023-04-01T04:29:34;98877.69;;;16.56;46.63
77205;BME280;67992;46.618;18.850;2023-04-01T04:31:59;98884.28;;;16.60;46.64
77205;BME280;67992;46.618;18.850;2023-04-01T04:34:25;98892.72;;;16.63;46.34
77205;BME280;67992;46.618;18.850;2023-04-01T04:36:51;98885.09;;;16.60;46.40
77205;BME280;67992;46.618;18.850;2023-04-01T04:39:16;98869.63;;;16.49;46.63
77205;BME280;67992;46.618;18.850;2023-04-01T04:41:42;98889.03;;;16.58;46.71
77205;BME280;67992;46.618;18.850;2023-04-01T04:44:08;98893.16;;;16.60;46.38
77205;BME280;67992;46.618;18.850;2023-04-01T04:46:34;98893.97;;;16.61;46.58
77205;BME280;67992;46.618;18.850;2023-04-01T04:49:03;98900.41;;;16.60;46.58
77205;BME280;67992;46.618;18.850;2023-04-01T04:51:28;98899.56;;;16.59;46.62
77205;BME280;67992;46.618;18.850;2023-04-01T04:53:54;98896.28;;;16.57;46.35
77205;BME280;67992;46.618;18.850;2023-04-01T04:56:21;98897.72;;;16.60;46.46
77205;BME280;67992;46.618;18.850;2023-04-01T04:58:48;98901.22;;;16.60;46.47
77205;BME280;67992;46.618;18.850;2023-04-01T05:01:15;98904.72;;;16.61;46.17
77205;BME280;67992;46.618;18.850;2023-04-01T05:03:41;98909.06;;;16.62;46.28
77205;BME280;67992;46.618;18.850;2023-04-01T05:06:08;98901.22;;;16.60;46.58
77205;BME280;67992;46.618;18.850;2023-04-01T05:08:34;98910.09;;;16.61;46.36
77205;BME280;67992;46.618;18.850;2023-04-01T05:11:00;98903.88;;;16.60;46.42
77205;BME280;67992;46.618;18.850;2023-04-01T05:13:27;98909.25;;;16.60;46.79
77205;BME280;67992;46.618;18.850;2023-04-01T05:15:52;98906.56;;;16.60;46.52
77205;BME280;67992;46.618;18.850;2023-04-01T05:18:19;98902.88;;;16.61;46.51
77205;BME280;67992;46.618;18.850;2023-04-01T05:20:49;98905.56;;;16.61;46.39
77205;BME280;67992;46.618;18.850;2023-04-01T05:23:16;98901.00;;;16.62;46.27
77205;BME280;67992;46.618;18.850;2023-04-01T05:25:42;98892.97;;;16.49;46.36
77205;BME280;67992;46.618;18.850;2023-04-01T05:28:08;98912.78;;;16.61;46.39
77205;BME280;67992;46.618;18.850;2023-04-01T05:30:33;98909.25;;;16.60;46.00
77205;BME280;67992;46.618;18.850;2023-04-01T05:32:59;98901.03;;;16.55;46.35
77205;BME280;67992;46.618;18.850;2023-04-01T05:35:25;98900.59;;;16.52;46.03
77205;BME280;67992;46.618;18.850;2023-04-01T05:37:51;98910.50;;;16.58;46.64
77205;BME280;67992;46.618;18.850;2023-04-01T05:40:17;98908.06;;;16.56;46.63
77205;BME280;67992;46.618;18.850;2023-04-01T05:42:43;98893.19;;;16.47;46.50
77205;BME280;67992;46.618;18.850;2023-04-01T05:45:10;98912.41;;;16.57;46.58
77205;BME280;67992;46.618;18.850;2023-04-01T05:47:35;98921.06;;;16.59;46.34
77205;BME280;67992;46.618;18.850;2023-04-01T05:50:01;98919.41;;;16.58;46.85
77205;BME280;67992;46.618;18.850;2023-04-01T05:52:27;98924.78;;;16.58;46.55
77205;BME280;67992;46.618;18.850;2023-04-01T05:54:52;98922.91;;;16.59;46.60
77205;BME280;67992;46.618;18.850;2023-04-01T05:57:18;98926.63;;;16.58;46.43
77205;BME280;67992;46.618;18.850;2023-04-01T05:59:44;98937.19;;;16.59;46.62
77205;BME280;67992;46.618;18.850;2023-04-01T06:02:12;98933.66;;;16.59;46.52
77205;BME280;67992;46.618;18.850;2023-04-01T06:04:39;98929.75;;;16.55;46.42
77205;BME280;67992;46.618;18.850;2023-04-01T06:07:14;98927.47;;;16.52;46.70
77205;BME280;67992;46.618;18.850;2023-04-01T06:09:43;98934.69;;;16.58;46.49
77205;BME280;67992;46.618;18.850;2023-04-01T06:21:39;98933.88;;;16.57;46.60
77205;BME280;67992;46.618;18.850;2023-04-01T06:27:43;98931.63;;;16.54;46.86
77205;BME280;67992;46.618;18.850;2023-04-01T06:30:33;98937.81;;;16.55;46.85
77205;BME280;67992;46.618;18.850;2023-04-01T06:46:55;98928.91;;;16.48;46.49
77205;BME280;67992;46.618;18.850;2023-04-01T06:49:41;98944.81;;;16.56;46.73
77205;BME280;67992;46.618;18.850;2023-04-01T06:54:49;98928.91;;;16.48;46.92
77205;BME280;67992;46.618;18.850;2023-04-01T06:57:34;98924.16;;;16.50;46.91
77205;BME280;67992;46.618;18.850;2023-04-01T07:00:30;98931.16;;;16.51;46.66
77205;BME280;67992;46.618;18.850;2023-04-01T07:05:51;98941.94;;;16.57;46.80
77205;BME280;67992;46.618;18.850;2023-04-01T07:08:27;98939.03;;;16.59;46.62
77205;BME280;67992;46.618;18.850;2023-04-01T07:11:02;98946.25;;;16.58;46.87
77205;BME280;67992;46.618;18.850;2023-04-01T07:13:36;98950.81;;;16.58;46.40
77205;BME280;67992;46.618;18.850;2023-04-01T07:18:57;98956.16;;;16.58;46.88
77205;BME280;67992;46.618;18.850;2023-04-01T07:21:40;98956.16;;;16.58;46.74
77205;BME280;67992;46.618;18.850;2023-04-01T07:24:39;98949.16;;;16.57;47.16
77205;BME280;67992;46.618;18.850;2023-04-01T07:27:11;98950.19;;;16.56;46.66
77205;BME280;67992;46.618;18.850;2023-04-01T07:29:40;98952.69;;;16.57;46.97
77205;BME280;67992;46.618;18.850;2023-04-01T07:34:44;98943.78;;;16.50;46.76
77205;BME280;67992;46.618;18.850;2023-04-01T07:37:37;98958.84;;;16.58;46.80
77205;BME280;67992;46.618;18.850;2023-04-01T07:40:28;98949.59;;;16.54;46.76
77205;BME280;67992;46.618;18.850;2023-04-01T07:57:01;98966.91;;;16.58;47.14
77205;BME280;67992;46.618;18.850;2023-04-01T08:04:57;98959.91;;;16.57;47.89
77205;BME280;67992;46.618;18.850;2023-04-01T08:15:52;98966.53;;;16.54;49.11
77205;BME280;67992;46.618;18.850;2023-04-01T08:18:59;98964.03;;;16.59;48.23
77205;BME280;67992;46.618;18.850;2023-04-01T08:21:28;98963.81;;;16.61;48.48
77205;BME280;67992;46.618;18.850;2023-04-01T08:23:58;98960.91;;;16.69;48.11
77205;BME280;67992;46.618;18.850;2023-04-01T08:26:45;98953.63;;;16.76;47.58
77205;BME280;67992;46.618;18.850;2023-04-01T08:29:48;98950.53;;;16.85;46.94
77205;BME280;67992;46.618;18.850;2023-04-01T08:32:26;98958.06;;;17.01;46.83
77205;BME280;67992;46.618;18.850;2023-04-01T08:35:28;98941.66;;;17.16;46.46
77205;BME280;67992;46.618;18.850;2023-04-01T08:38:04;98951.91;;;17.32;45.97
77205;BME280;67992;46.618;18.850;2023-04-01T08:40:57;98955.34;;;17.46;45.71
77205;BME280;67992;46.618;18.850;2023-04-01T08:47:05;98951.22;;;17.75;45.10
77205;BME280;67992;46.618;18.850;2023-04-01T08:49:32;98954.44;;;17.90;45.25
77205;BME280;67992;46.618;18.850;2023-04-01T08:55:02;98956.38;;;18.25;44.01
77205;BME280;67992;46.618;18.850;2023-04-01T08:57:38;98956.84;;;18.41;44.17
77205;BME280;67992;46.618;18.850;2023-04-01T09:08:34;98966.91;;;18.88;43.04
77205;BME280;67992;46.618;18.850;2023-04-01T09:11:18;98973.88;;;18.96;42.92
77205;BME280;67992;46.618;18.850;2023-04-01T09:17:06;98977.00;;;19.11;42.58
77205;BME280;67992;46.618;18.850;2023-04-01T09:19:45;98980.22;;;19.19;42.57
77205;BME280;67992;46.618;18.850;2023-04-01T09:22:37;98969.63;;;19.18;42.29
77205;BME280;67992;46.618;18.850;2023-04-01T09:25:36;98972.03;;;19.26;42.64
77205;BME280;67992;46.618;18.850;2023-04-01T09:39:37;98970.47;;;19.48;41.48
77205;BME280;67992;46.618;18.850;2023-04-01T09:56:43;98977.75;;;19.89;39.66
77205;BME280;67992;46.618;18.850;2023-04-01T10:02:23;98961.16;;;19.74;40.25
77205;BME280;67992;46.618;18.850;2023-04-01T10:10:46;98977.06;;;20.16;39.98
77205;BME280;67992;46.618;18.850;2023-04-01T10:13:45;98973.72;;;20.33;39.61
77205;BME280;67992;46.618;18.850;2023-04-01T10:16:52;98981.22;;;20.54;39.37
77205;BME280;67992;46.618;18.850;2023-04-01T10:39:34;98978.63;;;21.50;38.08
77205;BME280;67992;46.618;18.850;2023-04-01T10:56:47;98970.44;;;21.90;37.69
77205;BME280;67992;46.618;18.850;2023-04-01T10:59:42;98967.06;;;21.99;37.69
77205;BME280;67992;46.618;18.850;2023-04-01T11:02:57;98965.69;;;22.14;37.45
77205;BME280;67992;46.618;18.850;2023-04-01T11:12:00;98978.84;;;22.43;37.01
77205;BME280;67992;46.618;18.850;2023-04-01T11:26:00;98965.13;;;22.88;36.49
77205;BME280;67992;46.618;18.850;2023-04-01T11:28:51;98965.50;;;22.97;36.55
77205;BME280;67992;46.618;18.850;2023-04-01T11:40:37;98968.19;;;23.13;36.25
77205;BME280;67992;46.618;18.850;2023-04-01T11:43:32;98966.13;;;23.25;36.01
77205;BME280;67992;46.618;18.850;2023-04-01T12:08:30;98988.50;;;24.13;35.03
77205;BME280;67992;46.618;18.850;2023-04-01T12:13:43;98989.88;;;23.88;34.15
77205;BME280;67992;46.618;18.850;2023-04-01T12:27:23;98982.69;;;24.04;34.98
77205;BME280;67992;46.618;18.850;2023-04-01T12:30:04;98985.47;;;24.09;34.82
77205;BME280;67992;46.618;18.850;2023-04-01T12:35:24;98983.31;;;24.11;34.91
77205;BME280;67992;46.618;18.850;2023-04-01T12:46:27;98981.69;;;24.10;34.67
77205;BME280;67992;46.618;18.850;2023-04-01T12:52:11;98985.00;;;23.90;33.98
77205;BME280;67992;46.618;18.850;2023-04-01T12:55:08;98983.94;;;23.92;33.57
77205;BME280;67992;46.618;18.850;2023-04-01T13:00:39;98973.19;;;24.07;33.43
77205;BME280;67992;46.618;18.850;2023-04-01T13:14:44;98975.38;;;24.41;33.59
77205;BME280;67992;46.618;18.850;2023-04-01T13:20:16;98970.00;;;24.51;33.52
77205;BME280;67992;46.618;18.850;2023-04-01T13:25:43;98966.75;;;24.55;33.54
77205;BME280;67992;46.618;18.850;2023-04-01T13:31:11;98964.09;;;24.65;33.47
77205;BME280;67992;46.618;18.850;2023-04-01T13:45:08;98969.59;;;24.75;33.25
77205;BME280;67992;46.618;18.850;2023-04-01T13:50:37;98963.66;;;24.78;33.33
77205;BME280;67992;46.618;18.850;2023-04-01T14:24:32;98962.41;;;24.59;32.81
77205;BME280;67992;46.618;18.850;2023-04-01T14:33:05;98956.16;;;24.53;32.95
77205;BME280;67992;46.618;18.850;2023-04-01T14:38:27;98955.84;;;24.49;33.06
77205;BME280;67992;46.618;18.850;2023-04-01T14:41:25;98932.13;;;24.40;33.33
77205;BME280;67992;46.618;18.850;2023-04-01T14:44:03;98949.84;;;24.42;33.31
77205;BME280;67992;46.618;18.850;2023-04-01T14:47:04;98952.00;;;24.40;33.44
77205;BME280;67992;46.618;18.850;2023-04-01T14:49:53;98941.34;;;24.34;33.43
77205;BME280;67992;46.618;18.850;2023-04-01T14:52:31;98949.50;;;24.34;33.60
77205;BME280;67992;46.618;18.850;2023-04-01T14:55:23;98947.28;;;24.31;33.58
77205;BME280;67992;46.618;18.850;2023-04-01T14:58:11;98950.81;;;24.26;33.45
77205;BME280;67992;46.618;18.850;2023-04-01T15:01:07;98954.31;;;24.22;33.54
77205;BME280;67992;46.618;18.850;2023-04-01T15:07:40;98951.94;;;23.99;32.65
77205;BME280;67992;46.618;18.850;2023-04-01T15:14:29;98947.78;;;23.91;32.43
77205;BME280;67992;46.618;18.850;2023-04-01T15:28:30;98960.13;;;23.72;32.79
77205;BME280;67992;46.618;18.850;2023-04-01T16:15:43;98964.56;;;22.64;33.60
77205;BME280;67992;46.618;18.850;2023-04-01T16:21:33;98970.94;;;22.58;33.91
77205;BME280;67992;46.618;18.850;2023-04-01T16:27:11;98967.19;;;22.43;34.16
77205;BME280;67992;46.618;18.850;2023-04-01T16:29:46;98980.75;;;22.43;34.27
77205;BME280;67992;46.618;18.850;2023-04-01T16:38:09;98999.25;;;22.29;34.49
77205;BME280;67992;46.618;18.850;2023-04-01T16:41:10;98999.66;;;22.21;34.78
77205;BME280;67992;46.618;18.850;2023-04-01T16:43:41;98997.09;;;22.15;34.80
77205;BME280;67992;46.618;18.850;2023-04-01T16:46:26;98994.31;;;22.10;35.17
77205;BME280;67992;46.618;18.850;2023-04-01T16:51:32;99009.34;;;22.00;35.08
77205;BME280;67992;46.618;18.850;2023-04-01T16:54:10;99017.97;;;21.97;35.14
77205;BME280;67992;46.618;18.850;2023-04-01T16:57:10;99021.66;;;21.91;34.96
77205;BME280;67992;46.618;18.850;2023-04-01T17:02:22;99027.09;;;21.80;35.32
77205;BME280;67992;46.618;18.850;2023-04-01T17:05:03;99029.81;;;21.80;35.44
77205;BME280;67992;46.618;18.850;2023-04-01T17:12:47;99015.56;;;21.56;35.46
77205;BME280;67992;46.618;18.850;2023-04-01T17:15:53;99037.66;;;21.65;35.42
77205;BME280;67992;46.618;18.850;2023-04-01T17:18:56;99042.16;;;21.59;35.51
77205;BME280;67992;46.618;18.850;2023-04-01T17:21:39;99039.44;;;21.59;35.81
77205;BME280;67992;46.618;18.850;2023-04-01T17:24:31;99057.25;;;21.55;35.61
77205;BME280;67992;46.618;18.850;2023-04-01T17:38:37;99077.44;;;21.24;36.10
77205;BME280;67992;46.618;18.850;2023-04-01T17:52:39;99077.97;;;21.10;36.34
77205;BME280;67992;46.618;18.850;2023-04-01T17:55:46;99092.41;;;21.15;36.29
77205;BME280;67992;46.618;18.850;2023-04-01T18:01:20;99097.38;;;21.07;36.21
77205;BME280;67992;46.618;18.850;2023-04-01T18:26:37;99125.44;;;20.83;36.23
77205;BME280;67992;46.618;18.850;2023-04-01T18:32:34;99139.44;;;20.79;36.55
77205;BME280;67992;46.618;18.850;2023-04-01T18:35:30;99129.69;;;20.78;36.46
77205;BME280;67992;46.618;18.850;2023-04-01T18:40:30;99127.56;;;20.69;36.76
77205;BME280;67992;46.618;18.850;2023-04-01T18:43:30;99133.19;;;20.67;36.82
77205;BME280;67992;46.618;18.850;2023-04-01T18:51:51;99139.53;;;20.61;36.98
77205;BME280;67992;46.618;18.850;2023-04-01T18:54:29;99137.31;;;20.58;36.81
77205;BME280;67992;46.618;18.850;2023-04-01T18:57:14;99136.94;;;20.55;37.23
77205;BME280;67992;46.618;18.850;2023-04-01T19:00:02;99136.59;;;20.51;37.33
77205;BME280;67992;46.618;18.850;2023-04-01T19:02:50;99149.28;;;20.51;37.09
77205;BME280;67992;46.618;18.850;2023-04-01T19:05:34;99147.03;;;20.48;37.26
77205;BME280;67992;46.618;18.850;2023-04-01T19:08:28;99141.03;;;20.46;37.38
77205;BME280;67992;46.618;18.850;2023-04-01T19:16:38;99151.38;;;20.19;37.96
77205;BME280;67992;46.618;18.850;2023-04-01T19:30:23;99161.91;;;20.09;37.99
77205;BME280;67992;46.618;18.850;2023-04-01T19:35:44;99167.56;;;20.07;38.27
77205;BME280;67992;46.618;18.850;2023-04-01T19:40:57;99163.81;;;20.08;38.07
77205;BME280;67992;46.618;18.850;2023-04-01T19:44:09;99170.72;;;20.04;37.93
77205;BME280;67992;46.618;18.850;2023-04-01T19:46:46;99166.59;;;20.02;38.70
77205;BME280;67992;46.618;18.850;2023-04-01T20:00:49;99169.97;;;19.97;38.45
77205;BME280;67992;46.618;18.850;2023-04-01T20:03:40;99173.50;;;19.98;38.16
77205;BME280;67992;46.618;18.850;2023-04-01T20:16:54;99175.69;;;19.89;37.79
77205;BME280;67992;46.618;18.850;2023-04-01T20:19:34;99177.78;;;19.87;37.92
77205;BME280;67992;46.618;18.850;2023-04-01T20:22:27;99187.19;;;19.85;37.92
77205;BME280;67992;46.618;18.850;2023-04-01T20:24:51;99187.78;;;19.87;38.24
77205;BME280;67992;46.618;18.850;2023-04-01T20:27:30;99189.88;;;19.85;37.95
77205;BME280;67992;46.618;18.850;2023-04-01T20:30:34;99190.31;;;19.82;38.28
77205;BME280;67992;46.618;18.850;2023-04-01T20:35:44;99186.78;;;19.81;38.26
77205;BME280;67992;46.618;18.850;2023-04-01T20:41:28;99187.56;;;19.70;38.08
77205;BME280;67992;46.618;18.850;2023-04-01T20:44:13;99209.91;;;19.77;38.35
77205;BME280;67992;46.618;18.850;2023-04-01T20:46:48;99204.97;;;19.74;38.30
77205;BME280;67992;46.618;18.850;2023-04-01T20:49:40;99204.97;;;19.74;38.05
77205;BME280;67992;46.618;18.850;2023-04-01T20:54:57;99211.41;;;19.73;38.28
77205;BME280;67992;46.618;18.850;2023-04-01T20:57:41;99207.28;;;19.71;38.43
77205;BME280;67992;46.618;18.850;2023-04-01T21:00:33;99212.47;;;19.72;38.44
77205;BME280;67992;46.618;18.850;2023-04-01T21:03:29;99210.22;;;19.69;38.04
77205;BME280;67992;46.618;18.850;2023-04-01T21:09:29;99219.00;;;19.65;38.57
77205;BME280;67992;46.618;18.850;2023-04-01T21:26:19;99203.22;;;19.43;38.06
77205;BME280;67992;46.618;18.850;2023-04-01T21:31:29;99233.22;;;19.53;38.45
77205;BME280;67992;46.618;18.850;2023-04-01T21:37:27;99237.19;;;19.51;38.48
77205;BME280;67992;46.618;18.850;2023-04-01T21:48:22;99245.13;;;19.46;38.49
77205;BME280;67992;46.618;18.850;2023-04-01T22:08:06;99244.63;;;19.31;38.33
77205;BME280;67992;46.618;18.850;2023-04-01T22:13:17;99257.69;;;19.34;38.55
77205;BME280;67992;46.618;18.850;2023-04-01T22:15:56;99254.97;;;19.34;38.50
77205;BME280;67992;46.618;18.850;2023-04-01T22:18:34;99244.84;;;19.29;38.71
77205;BME280;67992;46.618;18.850;2023-04-01T22:21:26;99261.41;;;19.33;38.36
77205;BME280;67992;46.618;18.850;2023-04-01T22:26:43;99251.53;;;19.27;38.27
77205;BME280;67992;46.618;18.850;2023-04-01T22:29:22;99268.91;;;19.31;39.00
77205;BME280;67992;46.618;18.850;2023-04-01T22:32:06;99268.31;;;19.29;38.51
77205;BME280;67992;46.618;18.850;2023-04-01T22:43:16;99281.19;;;19.27;38.73
77205;BME280;67992;46.618;18.850;2023-04-01T22:51:20;99293.69;;;19.21;39.16
77205;BME280;67992;46.618;18.850;2023-04-01T22:54:15;99280.41;;;19.20;38.48
77205;BME280;67992;46.618;18.850;2023-04-01T23:02:09;99293.88;;;19.20;38.13
77205;BME280;67992;46.618;18.850;2023-04-01T23:04:40;99287.91;;;19.18;38.90
77205;BME280;67992;46.618;18.850;2023-04-01T23:07:36;99286.25;;;19.17;38.82
77205;BME280;67992;46.618;18.850;2023-04-01T23:10:41;99300.56;;;19.17;38.45
77205;BME280;67992;46.618;18.850;2023-04-01T23:13:16;99300.78;;;19.16;38.61
77205;BME280;67992;46.618;18.850;2023-04-01T23:15:44;99298.75;;;19.11;38.48
77205;BME280;67992;46.618;18.850;2023-04-01T23:21:26;99303.91;;;19.13;39.14
77205;BME280;67992;46.618;18.850;2023-04-01T23:26:58;99315.13;;;19.10;39.01
77205;BME280;67992;46.618;18.850;2023-04-01T23:29:25;99305.28;;;18.97;39.10
77205;BME280;67992;46.618;18.850;2023-04-01T23:32:03;99323.88;;;19.05;39.09